sensor_id;sensor_type;location;lat;lon;timestamp;P1;durP1;ratioP1;P2;durP2;ratioP2
52956;SDS011;38819;42.692;23.342;2024-02-26T00:02:16;49.03;;;27.55;;
52956;SDS011;38819;42.692;23.342;2024-02-26T00:04:41;44.63;;;26.42;;
52956;SDS011;38819;42.692;23.342;2024-02-26T00:07:07;47.60;;;27.05;;
52956;SDS011;38819;42.692;23.342;2024-02-26T00:09:32;45.20;;;28.05;;
52956;SDS011;38819;42.692;23.342;2024-02-26T00:12:01;46.28;;;23.08;;
52956;SDS011;38819;42.692;23.342;2024-02-26T00:16:54;47.80;;;27.92;;
52956;SDS011;38819;42.692;23.342;2024-02-26T00:19:19;47.33;;;28.38;;
52956;SDS011;38819;42.692;23.342;2024-02-26T00:21:44;53.47;;;29.00;;
52956;SDS011;38819;42.692;23.342;2024-02-26T00:24:10;52.25;;;28.10;;
52956;SDS011;38819;42.692;23.342;2024-02-26T00:26:35;32.28;;;20.50;;
52956;SDS011;38819;42.692;23.342;2024-02-26T00:29:00;25.05;;;16.45;;
52956;SDS011;38819;42.692;23.342;2024-02-26T00:31:26;31.45;;;17.60;;
52956;SDS011;38819;42.692;23.342;2024-02-26T00:33:52;30.90;;;17.52;;
52956;SDS011;38819;42.692;23.342;2024-02-26T00:36:17;32.50;;;18.45;;
52956;SDS011;38819;42.692;23.342;2024-02-26T00:38:43;37.55;;;23.85;;
52956;SDS011;38819;42.692;23.342;2024-02-26T00:41:11;42.60;;;27.35;;
52956;SDS011;38819;42.692;23.342;2024-02-26T00:43:36;48.58;;;28.52;;
52956;SDS011;38819;42.692;23.342;2024-02-26T00:46:04;52.97;;;28.67;;
52956;SDS011;38819;42.692;23.342;2024-02-26T00:48:29;41.00;;;25.65;;
52956;SDS011;38819;42.692;23.342;2024-02-26T00:50:55;53.33;;;30.67;;
52956;SDS011;38819;42.692;23.342;2024-02-26T00:53:20;53.53;;;31.63;;
52956;SDS011;38819;42.692;23.342;2024-02-26T00:55:46;50.50;;;31.67;;
52956;SDS011;38819;42.692;23.342;2024-02-26T00:58:11;52.88;;;31.13;;
52956;SDS011;38819;42.692;23.342;2024-02-26T01:00:36;47.28;;;29.45;;
52956;SDS011;38819;42.692;23.342;2024-02-26T01:03:02;55.47;;;29.95;;
52956;SDS011;38819;42.692;23.342;2024-02-26T01:05:28;47.42;;;29.15;;
52956;SDS011;38819;42.692;23.342;2024-02-26T01:07:54;46.10;;;27.55;;
52956;SDS011;38819;42.692;23.342;2024-02-26T01:10:19;42.08;;;25.83;;
52956;SDS011;38819;42.692;23.342;2024-02-26T01:12:44;45.30;;;27.02;;
52956;SDS011;38819;42.692;23.342;2024-02-26T01:15:10;53.45;;;27.60;;
52956;SDS011;38819;42.692;23.342;2024-02-26T01:17:35;52.50;;;30.45;;
52956;SDS011;38819;42.692;23.342;2024-02-26T01:20:01;49.53;;;31.20;;
52956;SDS011;38819;42.692;23.342;2024-02-26T01:22:26;47.33;;;30.55;;
52956;SDS011;38819;42.692;23.342;2024-02-26T01:24:51;50.58;;;30.70;;
52956;SDS011;38819;42.692;23.342;2024-02-26T01:27:17;48.17;;;31.05;;
52956;SDS011;38819;42.692;23.342;2024-02-26T01:29:42;48.90;;;28.77;;
52956;SDS011;38819;42.692;23.342;2024-02-26T01:32:08;46.30;;;28.17;;
52956;SDS011;38819;42.692;23.342;2024-02-26T01:34:33;43.17;;;26.98;;
52956;SDS011;38819;42.692;23.342;2024-02-26T01:36:59;43.83;;;26.83;;
52956;SDS011;38819;42.692;23.342;2024-02-26T01:39:24;43.33;;;26.60;;
52956;SDS011;38819;42.692;23.342;2024-02-26T01:41:50;49.22;;;28.48;;
52956;SDS011;38819;42.692;23.342;2024-02-26T01:44:15;40.78;;;26.27;;
52956;SDS011;38819;42.692;23.342;2024-02-26T01:46:40;46.78;;;25.75;;
52956;SDS011;38819;42.692;23.342;2024-02-26T01:49:07;46.78;;;27.50;;
52956;SDS011;38819;42.692;23.342;2024-02-26T01:51:37;47.15;;;26.70;;
52956;SDS011;38819;42.692;23.342;2024-02-26T01:54:04;44.08;;;26.02;;
52956;SDS011;38819;42.692;23.342;2024-02-26T01:56:30;42.15;;;26.40;;
52956;SDS011;38819;42.692;23.342;2024-02-26T01:58:59;44.42;;;28.50;;
52956;SDS011;38819;42.692;23.342;2024-02-26T02:01:25;53.42;;;28.00;;
52956;SDS011;38819;42.692;23.342;2024-02-26T02:03:52;45.23;;;27.17;;
52956;SDS011;38819;42.692;23.342;2024-02-26T02:06:18;44.50;;;27.52;;
52956;SDS011;38819;42.692;23.342;2024-02-26T02:08:44;46.72;;;28.00;;
52956;SDS011;38819;42.692;23.342;2024-02-26T02:11:09;47.35;;;27.30;;
52956;SDS011;38819;42.692;23.342;2024-02-26T02:13:36;52.13;;;29.55;;
52956;SDS011;38819;42.692;23.342;2024-02-26T02:16:02;43.15;;;25.70;;
52956;SDS011;38819;42.692;23.342;2024-02-26T02:18:28;44.85;;;24.55;;
52956;SDS011;38819;42.692;23.342;2024-02-26T02:20:54;43.63;;;24.80;;
52956;SDS011;38819;42.692;23.342;2024-02-26T02:23:21;38.35;;;23.95;;
52956;SDS011;38819;42.692;23.342;2024-02-26T02:25:46;37.00;;;24.00;;
52956;SDS011;38819;42.692;23.342;2024-02-26T02:28:12;41.35;;;24.88;;
52956;SDS011;38819;42.692;23.342;2024-02-26T02:30:37;37.88;;;25.00;;
52956;SDS011;38819;42.692;23.342;2024-02-26T02:33:04;43.35;;;25.45;;
52956;SDS011;38819;42.692;23.342;2024-02-26T02:35:29;42.38;;;25.08;;
52956;SDS011;38819;42.692;23.342;2024-02-26T02:37:56;40.97;;;25.35;;
52956;SDS011;38819;42.692;23.342;2024-02-26T02:40:22;39.33;;;25.27;;
52956;SDS011;38819;42.692;23.342;2024-02-26T02:42:47;39.92;;;23.92;;
52956;SDS011;38819;42.692;23.342;2024-02-26T02:45:13;42.45;;;26.52;;
52956;SDS011;38819;42.692;23.342;2024-02-26T02:47:38;37.10;;;23.80;;
52956;SDS011;38819;42.692;23.342;2024-02-26T02:50:04;39.35;;;25.13;;
52956;SDS011;38819;42.692;23.342;2024-02-26T02:52:30;42.05;;;26.15;;
52956;SDS011;38819;42.692;23.342;2024-02-26T02:54:55;42.38;;;25.83;;
52956;SDS011;38819;42.692;23.342;2024-02-26T02:57:20;40.50;;;26.45;;
52956;SDS011;38819;42.692;23.342;2024-02-26T02:59:46;44.17;;;25.17;;
52956;SDS011;38819;42.692;23.342;2024-02-26T03:02:12;42.55;;;26.65;;
52956;SDS011;38819;42.692;23.342;2024-02-26T03:04:37;42.92;;;26.27;;
52956;SDS011;38819;42.692;23.342;2024-02-26T03:07:03;43.60;;;26.25;;
52956;SDS011;38819;42.692;23.342;2024-02-26T03:09:28;38.67;;;25.23;;
52956;SDS011;38819;42.692;23.342;2024-02-26T03:11:53;38.85;;;24.50;;
52956;SDS011;38819;42.692;23.342;2024-02-26T03:14:19;41.67;;;26.00;;
52956;SDS011;38819;42.692;23.342;2024-02-26T03:16:44;39.42;;;25.90;;
52956;SDS011;38819;42.692;23.342;2024-02-26T03:19:10;45.03;;;26.88;;
52956;SDS011;38819;42.692;23.342;2024-02-26T03:21:35;47.95;;;26.60;;
52956;SDS011;38819;42.692;23.342;2024-02-26T03:24:00;45.60;;;26.40;;
52956;SDS011;38819;42.692;23.342;2024-02-26T03:26:26;41.80;;;25.75;;
52956;SDS011;38819;42.692;23.342;2024-02-26T03:28:51;44.58;;;27.27;;
52956;SDS011;38819;42.692;23.342;2024-02-26T03:31:17;44.28;;;26.77;;
52956;SDS011;38819;42.692;23.342;2024-02-26T03:33:42;40.67;;;25.67;;
52956;SDS011;38819;42.692;23.342;2024-02-26T03:36:07;39.47;;;24.98;;
52956;SDS011;38819;42.692;23.342;2024-02-26T03:38:33;44.70;;;26.15;;
52956;SDS011;38819;42.692;23.342;2024-02-26T03:40:58;42.13;;;26.48;;
52956;SDS011;38819;42.692;23.342;2024-02-26T03:43:24;43.08;;;26.73;;
52956;SDS011;38819;42.692;23.342;2024-02-26T03:45:50;44.42;;;27.00;;
52956;SDS011;38819;42.692;23.342;2024-02-26T03:48:15;43.40;;;27.23;;
52956;SDS011;38819;42.692;23.342;2024-02-26T03:50:40;47.90;;;28.75;;
52956;SDS011;38819;42.692;23.342;2024-02-26T03:53:06;41.03;;;26.65;;
52956;SDS011;38819;42.692;23.342;2024-02-26T03:55:34;44.58;;;26.83;;
52956;SDS011;38819;42.692;23.342;2024-02-26T03:57:59;52.85;;;27.38;;
52956;SDS011;38819;42.692;23.342;2024-02-26T04:00:25;40.65;;;26.48;;
52956;SDS011;38819;42.692;23.342;2024-02-26T04:02:51;42.67;;;26.42;;
52956;SDS011;38819;42.692;23.342;2024-02-26T04:05:16;41.20;;;25.20;;
52956;SDS011;38819;42.692;23.342;2024-02-26T04:07:42;43.92;;;24.20;;
52956;SDS011;38819;42.692;23.342;2024-02-26T04:10:10;41.45;;;27.17;;
52956;SDS011;38819;42.692;23.342;2024-02-26T04:12:37;45.63;;;26.00;;
52956;SDS011;38819;42.692;23.342;2024-02-26T04:15:04;39.25;;;25.77;;
52956;SDS011;38819;42.692;23.342;2024-02-26T04:17:30;43.97;;;26.63;;
52956;SDS011;38819;42.692;23.342;2024-02-26T04:19:56;47.28;;;26.08;;
52956;SDS011;38819;42.692;23.342;2024-02-26T04:22:21;43.28;;;25.67;;
52956;SDS011;38819;42.692;23.342;2024-02-26T04:24:46;41.67;;;25.15;;
52956;SDS011;38819;42.692;23.342;2024-02-26T04:27:12;43.22;;;27.25;;
52956;SDS011;38819;42.692;23.342;2024-02-26T04:29:37;46.03;;;27.45;;
52956;SDS011;38819;42.692;23.342;2024-02-26T04:32:02;55.15;;;27.20;;
52956;SDS011;38819;42.692;23.342;2024-02-26T04:34:28;46.42;;;25.98;;
52956;SDS011;38819;42.692;23.342;2024-02-26T04:36:54;47.58;;;28.23;;
52956;SDS011;38819;42.692;23.342;2024-02-26T04:39:19;48.30;;;28.02;;
52956;SDS011;38819;42.692;23.342;2024-02-26T04:41:45;47.72;;;28.25;;
52956;SDS011;38819;42.692;23.342;2024-02-26T04:44:10;48.33;;;29.95;;
52956;SDS011;38819;42.692;23.342;2024-02-26T04:46:36;59.92;;;31.70;;
52956;SDS011;38819;42.692;23.342;2024-02-26T04:49:01;49.50;;;30.85;;
52956;SDS011;38819;42.692;23.342;2024-02-26T04:51:27;48.30;;;29.60;;
52956;SDS011;38819;42.692;23.342;2024-02-26T04:53:52;59.53;;;31.63;;
52956;SDS011;38819;42.692;23.342;2024-02-26T04:56:20;56.75;;;32.85;;
52956;SDS011;38819;42.692;23.342;2024-02-26T04:58:46;55.50;;;31.08;;
52956;SDS011;38819;42.692;23.342;2024-02-26T05:01:11;51.78;;;31.77;;
52956;SDS011;38819;42.692;23.342;2024-02-26T05:03:37;60.08;;;31.58;;
52956;SDS011;38819;42.692;23.342;2024-02-26T05:06:02;53.60;;;31.13;;
52956;SDS011;38819;42.692;23.342;2024-02-26T05:08:28;56.03;;;31.95;;
52956;SDS011;38819;42.692;23.342;2024-02-26T05:10:54;57.22;;;32.10;;
52956;SDS011;38819;42.692;23.342;2024-02-26T05:13:20;55.58;;;30.80;;
52956;SDS011;38819;42.692;23.342;2024-02-26T05:15:45;48.15;;;29.77;;
52956;SDS011;38819;42.692;23.342;2024-02-26T05:18:14;50.83;;;29.27;;
52956;SDS011;38819;42.692;23.342;2024-02-26T05:20:40;48.10;;;29.88;;
52956;SDS011;38819;42.692;23.342;2024-02-26T05:23:05;43.30;;;27.85;;
52956;SDS011;38819;42.692;23.342;2024-02-26T05:25:30;45.13;;;28.77;;
52956;SDS011;38819;42.692;23.342;2024-02-26T05:27:56;55.67;;;28.75;;
52956;SDS011;38819;42.692;23.342;2024-02-26T05:30:21;49.08;;;27.95;;
52956;SDS011;38819;42.692;23.342;2024-02-26T05:32:47;48.80;;;27.67;;
52956;SDS011;38819;42.692;23.342;2024-02-26T05:35:12;49.47;;;27.75;;
52956;SDS011;38819;42.692;23.342;2024-02-26T05:37:38;47.15;;;28.70;;
52956;SDS011;38819;42.692;23.342;2024-02-26T05:40:03;51.05;;;29.15;;
52956;SDS011;38819;42.692;23.342;2024-02-26T05:42:30;54.58;;;27.20;;
52956;SDS011;38819;42.692;23.342;2024-02-26T05:44:55;45.45;;;27.60;;
52956;SDS011;38819;42.692;23.342;2024-02-26T05:47:20;44.42;;;27.58;;
52956;SDS011;38819;42.692;23.342;2024-02-26T05:49:46;46.70;;;26.33;;
52956;SDS011;38819;42.692;23.342;2024-02-26T05:52:11;41.33;;;25.77;;
52956;SDS011;38819;42.692;23.342;2024-02-26T05:54:36;50.97;;;26.13;;
52956;SDS011;38819;42.692;23.342;2024-02-26T05:57:02;50.25;;;26.98;;
52956;SDS011;38819;42.692;23.342;2024-02-26T05:59:27;53.20;;;28.85;;
52956;SDS011;38819;42.692;23.342;2024-02-26T06:01:53;51.15;;;27.17;;
52956;SDS011;38819;42.692;23.342;2024-02-26T06:04:18;47.22;;;26.63;;
52956;SDS011;38819;42.692;23.342;2024-02-26T06:06:44;49.60;;;26.90;;
52956;SDS011;38819;42.692;23.342;2024-02-26T06:09:10;35.35;;;20.38;;
52956;SDS011;38819;42.692;23.342;2024-02-26T06:11:36;42.13;;;26.50;;
52956;SDS011;38819;42.692;23.342;2024-02-26T06:14:02;55.13;;;27.73;;
52956;SDS011;38819;42.692;23.342;2024-02-26T06:16:27;45.85;;;27.73;;
52956;SDS011;38819;42.692;23.342;2024-02-26T06:18:52;45.95;;;26.08;;
52956;SDS011;38819;42.692;23.342;2024-02-26T06:21:18;47.08;;;26.63;;
52956;SDS011;38819;42.692;23.342;2024-02-26T06:23:43;42.15;;;26.20;;
52956;SDS011;38819;42.692;23.342;2024-02-26T06:26:09;50.75;;;28.17;;
52956;SDS011;38819;42.692;23.342;2024-02-26T06:28:35;41.15;;;26.73;;
52956;SDS011;38819;42.692;23.342;2024-02-26T06:31:01;41.40;;;25.70;;
52956;SDS011;38819;42.692;23.342;2024-02-26T06:33:26;38.80;;;25.08;;
52956;SDS011;38819;42.692;23.342;2024-02-26T06:35:52;49.63;;;28.25;;
52956;SDS011;38819;42.692;23.342;2024-02-26T06:38:17;53.42;;;29.08;;
52956;SDS011;38819;42.692;23.342;2024-02-26T06:40:44;50.05;;;28.35;;
52956;SDS011;38819;42.692;23.342;2024-02-26T06:43:09;48.33;;;25.10;;
52956;SDS011;38819;42.692;23.342;2024-02-26T06:45:35;43.28;;;23.65;;
52956;SDS011;38819;42.692;23.342;2024-02-26T06:48:01;45.13;;;24.50;;
52956;SDS011;38819;42.692;23.342;2024-02-26T06:50:27;30.95;;;18.13;;
52956;SDS011;38819;42.692;23.342;2024-02-26T06:52:53;45.28;;;25.33;;
52956;SDS011;38819;42.692;23.342;2024-02-26T06:55:18;42.53;;;24.92;;
52956;SDS011;38819;42.692;23.342;2024-02-26T06:57:43;47.33;;;24.98;;
52956;SDS011;38819;42.692;23.342;2024-02-26T07:00:09;47.13;;;24.35;;
52956;SDS011;38819;42.692;23.342;2024-02-26T07:02:39;48.30;;;25.75;;
52956;SDS011;38819;42.692;23.342;2024-02-26T07:05:05;43.15;;;24.38;;
52956;SDS011;38819;42.692;23.342;2024-02-26T07:07:31;50.42;;;24.05;;
52956;SDS011;38819;42.692;23.342;2024-02-26T07:09:56;40.47;;;23.25;;
52956;SDS011;38819;42.692;23.342;2024-02-26T07:12:22;40.85;;;23.60;;
52956;SDS011;38819;42.692;23.342;2024-02-26T07:14:48;43.63;;;25.83;;
52956;SDS011;38819;42.692;23.342;2024-02-26T07:17:14;53.27;;;24.73;;
52956;SDS011;38819;42.692;23.342;2024-02-26T07:19:41;40.93;;;23.97;;
52956;SDS011;38819;42.692;23.342;2024-02-26T07:22:06;49.40;;;24.95;;
52956;SDS011;38819;42.692;23.342;2024-02-26T07:24:32;59.55;;;25.02;;
52956;SDS011;38819;42.692;23.342;2024-02-26T07:26:57;42.20;;;25.52;;
52956;SDS011;38819;42.692;23.342;2024-02-26T07:29:22;46.15;;;26.50;;
52956;SDS011;38819;42.692;23.342;2024-02-26T07:31:48;47.25;;;26.25;;
52956;SDS011;38819;42.692;23.342;2024-02-26T07:34:13;43.40;;;26.30;;
52956;SDS011;38819;42.692;23.342;2024-02-26T07:36:39;49.38;;;25.58;;
52956;SDS011;38819;42.692;23.342;2024-02-26T07:39:05;59.28;;;28.52;;
52956;SDS011;38819;42.692;23.342;2024-02-26T07:41:30;54.10;;;28.48;;
52956;SDS011;38819;42.692;23.342;2024-02-26T07:43:56;46.08;;;25.83;;
52956;SDS011;38819;42.692;23.342;2024-02-26T07:46:21;40.25;;;24.63;;
52956;SDS011;38819;42.692;23.342;2024-02-26T07:48:47;57.03;;;26.42;;
52956;SDS011;38819;42.692;23.342;2024-02-26T07:51:12;54.65;;;28.17;;
52956;SDS011;38819;42.692;23.342;2024-02-26T07:53:39;49.08;;;29.30;;
52956;SDS011;38819;42.692;23.342;2024-02-26T07:56:05;59.47;;;29.50;;
52956;SDS011;38819;42.692;23.342;2024-02-26T07:58:31;57.38;;;30.33;;
52956;SDS011;38819;42.692;23.342;2024-02-26T08:00:57;56.95;;;31.80;;
52956;SDS011;38819;42.692;23.342;2024-02-26T08:03:23;61.53;;;32.45;;
52956;SDS011;38819;42.692;23.342;2024-02-26T08:05:48;54.25;;;30.70;;
52956;SDS011;38819;42.692;23.342;2024-02-26T08:08:13;69.25;;;31.48;;
52956;SDS011;38819;42.692;23.342;2024-02-26T08:10:39;57.33;;;30.42;;
52956;SDS011;38819;42.692;23.342;2024-02-26T08:13:04;55.00;;;30.05;;
52956;SDS011;38819;42.692;23.342;2024-02-26T08:15:33;51.42;;;30.40;;
52956;SDS011;38819;42.692;23.342;2024-02-26T08:18:00;49.15;;;28.38;;
52956;SDS011;38819;42.692;23.342;2024-02-26T08:20:31;41.58;;;25.65;;
52956;SDS011;38819;42.692;23.342;2024-02-26T08:22:57;50.60;;;26.75;;
52956;SDS011;38819;42.692;23.342;2024-02-26T08:25:23;53.20;;;26.05;;
52956;SDS011;38819;42.692;23.342;2024-02-26T08:27:49;49.85;;;25.45;;
52956;SDS011;38819;42.692;23.342;2024-02-26T08:30:15;49.85;;;26.65;;
52956;SDS011;38819;42.692;23.342;2024-02-26T08:32:42;45.75;;;24.00;;
52956;SDS011;38819;42.692;23.342;2024-02-26T08:35:08;38.85;;;21.85;;
52956;SDS011;38819;42.692;23.342;2024-02-26T08:37:33;33.65;;;20.25;;
52956;SDS011;38819;42.692;23.342;2024-02-26T08:39:58;35.00;;;21.13;;
52956;SDS011;38819;42.692;23.342;2024-02-26T08:42:24;46.28;;;22.10;;
52956;SDS011;38819;42.692;23.342;2024-02-26T08:44:49;34.45;;;21.35;;
52956;SDS011;38819;42.692;23.342;2024-02-26T08:47:14;36.50;;;21.33;;
52956;SDS011;38819;42.692;23.342;2024-02-26T08:49:44;46.13;;;21.42;;
52956;SDS011;38819;42.692;23.342;2024-02-26T08:52:10;47.28;;;23.95;;
52956;SDS011;38819;42.692;23.342;2024-02-26T08:54:36;38.85;;;24.88;;
52956;SDS011;38819;42.692;23.342;2024-02-26T08:57:01;50.10;;;25.15;;
52956;SDS011;38819;42.692;23.342;2024-02-26T08:59:27;46.08;;;23.63;;
52956;SDS011;38819;42.692;23.342;2024-02-26T09:01:53;38.00;;;21.58;;
52956;SDS011;38819;42.692;23.342;2024-02-26T09:04:18;37.80;;;21.33;;
52956;SDS011;38819;42.692;23.342;2024-02-26T09:06:44;27.85;;;18.60;;
52956;SDS011;38819;42.692;23.342;2024-02-26T09:09:09;35.28;;;17.10;;
52956;SDS011;38819;42.692;23.342;2024-02-26T09:11:34;27.60;;;15.57;;
52956;SDS011;38819;42.692;23.342;2024-02-26T09:14:00;36.17;;;17.50;;
52956;SDS011;38819;42.692;23.342;2024-02-26T09:16:25;31.27;;;17.70;;
52956;SDS011;38819;42.692;23.342;2024-02-26T09:18:51;28.55;;;16.02;;
52956;SDS011;38819;42.692;23.342;2024-02-26T09:21:16;24.75;;;15.23;;
52956;SDS011;38819;42.692;23.342;2024-02-26T09:23:47;26.42;;;15.02;;
52956;SDS011;38819;42.692;23.342;2024-02-26T09:26:13;32.35;;;17.77;;
52956;SDS011;38819;42.692;23.342;2024-02-26T09:28:39;21.55;;;14.60;;
52956;SDS011;38819;42.692;23.342;2024-02-26T09:31:04;23.15;;;12.63;;
52956;SDS011;38819;42.692;23.342;2024-02-26T09:33:31;17.73;;;12.35;;
52956;SDS011;38819;42.692;23.342;2024-02-26T09:35:57;18.67;;;9.93;;
52956;SDS011;38819;42.692;23.342;2024-02-26T09:38:22;17.63;;;8.80;;
52956;SDS011;38819;42.692;23.342;2024-02-26T09:40:48;13.13;;;8.00;;
52956;SDS011;38819;42.692;23.342;2024-02-26T09:43:14;15.63;;;7.43;;
52956;SDS011;38819;42.692;23.342;2024-02-26T09:45:42;18.42;;;7.57;;
52956;SDS011;38819;42.692;23.342;2024-02-26T09:48:08;12.40;;;6.85;;
52956;SDS011;38819;42.692;23.342;2024-02-26T09:50:37;14.60;;;7.55;;
52956;SDS011;38819;42.692;23.342;2024-02-26T09:53:05;16.77;;;7.68;;
52956;SDS011;38819;42.692;23.342;2024-02-26T09:55:35;18.42;;;7.60;;
52956;SDS011;38819;42.692;23.342;2024-02-26T09:58:00;12.20;;;7.15;;
52956;SDS011;38819;42.692;23.342;2024-02-26T10:00:30;13.15;;;6.60;;
52956;SDS011;38819;42.692;23.342;2024-02-26T10:02:59;15.38;;;6.40;;
52956;SDS011;38819;42.692;23.342;2024-02-26T10:05:28;11.52;;;6.70;;
52956;SDS011;38819;42.692;23.342;2024-02-26T10:07:55;13.77;;;7.00;;
52956;SDS011;38819;42.692;23.342;2024-02-26T10:10:22;11.63;;;6.78;;
52956;SDS011;38819;42.692;23.342;2024-02-26T10:12:48;13.52;;;7.82;;
52956;SDS011;38819;42.692;23.342;2024-02-26T10:15:13;14.80;;;6.82;;
52956;SDS011;38819;42.692;23.342;2024-02-26T10:17:39;16.40;;;6.55;;
52956;SDS011;38819;42.692;23.342;2024-02-26T10:20:22;17.98;;;6.72;;
52956;SDS011;38819;42.692;23.342;2024-02-26T10:22:48;12.80;;;5.90;;
52956;SDS011;38819;42.692;23.342;2024-02-26T10:25:14;14.32;;;6.50;;
52956;SDS011;38819;42.692;23.342;2024-02-26T10:27:42;7.97;;;5.85;;
52956;SDS011;38819;42.692;23.342;2024-02-26T10:32:44;16.17;;;6.47;;
52956;SDS011;38819;42.692;23.342;2024-02-26T10:37:37;7.22;;;5.90;;
52956;SDS011;38819;42.692;23.342;2024-02-26T10:40:02;18.52;;;7.03;;
52956;SDS011;38819;42.692;23.342;2024-02-26T10:42:28;10.95;;;6.75;;
52956;SDS011;38819;42.692;23.342;2024-02-26T10:44:53;8.55;;;5.72;;
52956;SDS011;38819;42.692;23.342;2024-02-26T10:47:19;12.05;;;6.85;;
52956;SDS011;38819;42.692;23.342;2024-02-26T10:49:47;11.93;;;7.10;;
52956;SDS011;38819;42.692;23.342;2024-02-26T10:52:13;9.45;;;5.70;;
52956;SDS011;38819;42.692;23.342;2024-02-26T10:54:41;13.63;;;6.57;;
52956;SDS011;38819;42.692;23.342;2024-02-26T10:57:09;12.77;;;6.00;;
52956;SDS011;38819;42.692;23.342;2024-02-26T10:59:35;9.30;;;6.13;;
52956;SDS011;38819;42.692;23.342;2024-02-26T11:02:03;17.85;;;6.70;;
52956;SDS011;38819;42.692;23.342;2024-02-26T11:04:29;17.08;;;7.05;;
52956;SDS011;38819;42.692;23.342;2024-02-26T11:06:56;17.63;;;7.18;;
52956;SDS011;38819;42.692;23.342;2024-02-26T11:09:22;12.80;;;5.85;;
52956;SDS011;38819;42.692;23.342;2024-02-26T11:11:49;8.60;;;5.70;;
52956;SDS011;38819;42.692;23.342;2024-02-26T11:14:19;7.68;;;5.28;;
52956;SDS011;38819;42.692;23.342;2024-02-26T11:16:45;7.57;;;5.13;;
52956;SDS011;38819;42.692;23.342;2024-02-26T11:19:12;9.13;;;6.03;;
52956;SDS011;38819;42.692;23.342;2024-02-26T11:21:39;6.30;;;5.40;;
52956;SDS011;38819;42.692;23.342;2024-02-26T11:24:11;11.70;;;5.05;;
52956;SDS011;38819;42.692;23.342;2024-02-26T11:29:10;8.25;;;5.20;;
52956;SDS011;38819;42.692;23.342;2024-02-26T11:31:38;13.57;;;5.50;;
52956;SDS011;38819;42.692;23.342;2024-02-26T11:34:06;13.48;;;5.30;;
52956;SDS011;38819;42.692;23.342;2024-02-26T11:36:33;11.20;;;5.10;;
52956;SDS011;38819;42.692;23.342;2024-02-26T11:38:58;13.45;;;5.28;;
52956;SDS011;38819;42.692;23.342;2024-02-26T11:41:24;10.27;;;5.57;;
52956;SDS011;38819;42.692;23.342;2024-02-26T11:43:58;6.63;;;5.05;;
52956;SDS011;38819;42.692;23.342;2024-02-26T11:46:38;7.65;;;5.40;;
52956;SDS011;38819;42.692;23.342;2024-02-26T11:51:56;9.57;;;5.25;;
52956;SDS011;38819;42.692;23.342;2024-02-26T11:57:03;10.65;;;5.00;;
52956;SDS011;38819;42.692;23.342;2024-02-26T11:59:38;10.90;;;6.07;;
52956;SDS011;38819;42.692;23.342;2024-02-26T12:02:04;9.23;;;5.13;;
52956;SDS011;38819;42.692;23.342;2024-02-26T12:04:30;7.25;;;5.00;;
52956;SDS011;38819;42.692;23.342;2024-02-26T12:07:02;8.82;;;5.93;;
52956;SDS011;38819;42.692;23.342;2024-02-26T12:09:38;12.35;;;5.70;;
52956;SDS011;38819;42.692;23.342;2024-02-26T12:14:32;12.80;;;6.28;;
52956;SDS011;38819;42.692;23.342;2024-02-26T12:17:19;11.30;;;4.97;;
52956;SDS011;38819;42.692;23.342;2024-02-26T12:19:49;15.20;;;5.07;;
52956;SDS011;38819;42.692;23.342;2024-02-26T12:22:18;8.30;;;5.05;;
52956;SDS011;38819;42.692;23.342;2024-02-26T12:24:44;7.93;;;5.35;;
52956;SDS011;38819;42.692;23.342;2024-02-26T12:27:10;7.95;;;4.50;;
52956;SDS011;38819;42.692;23.342;2024-02-26T12:29:35;8.80;;;4.43;;
52956;SDS011;38819;42.692;23.342;2024-02-26T12:32:01;12.30;;;4.50;;
52956;SDS011;38819;42.692;23.342;2024-02-26T12:34:29;6.07;;;4.07;;
52956;SDS011;38819;42.692;23.342;2024-02-26T12:36:54;11.90;;;4.50;;
52956;SDS011;38819;42.692;23.342;2024-02-26T12:39:20;8.32;;;4.70;;
52956;SDS011;38819;42.692;23.342;2024-02-26T12:41:46;11.48;;;5.22;;
52956;SDS011;38819;42.692;23.342;2024-02-26T12:44:17;10.05;;;4.90;;
52956;SDS011;38819;42.692;23.342;2024-02-26T12:46:43;12.93;;;4.82;;
52956;SDS011;38819;42.692;23.342;2024-02-26T12:51:39;6.88;;;4.00;;
52956;SDS011;38819;42.692;23.342;2024-02-26T12:54:06;14.10;;;4.57;;
52956;SDS011;38819;42.692;23.342;2024-02-26T12:56:34;8.53;;;4.50;;
52956;SDS011;38819;42.692;23.342;2024-02-26T12:58:59;8.90;;;4.65;;
52956;SDS011;38819;42.692;23.342;2024-02-26T13:01:25;9.35;;;4.45;;
52956;SDS011;38819;42.692;23.342;2024-02-26T13:03:51;7.20;;;4.18;;
52956;SDS011;38819;42.692;23.342;2024-02-26T13:06:18;7.22;;;4.03;;
52956;SDS011;38819;42.692;23.342;2024-02-26T13:08:44;12.52;;;4.45;;
52956;SDS011;38819;42.692;23.342;2024-02-26T13:11:13;5.03;;;4.28;;
52956;SDS011;38819;42.692;23.342;2024-02-26T13:13:39;8.40;;;4.22;;
52956;SDS011;38819;42.692;23.342;2024-02-26T13:16:09;6.47;;;4.50;;
52956;SDS011;38819;42.692;23.342;2024-02-26T13:18:39;5.78;;;4.10;;
52956;SDS011;38819;42.692;23.342;2024-02-26T13:21:10;12.00;;;4.70;;
52956;SDS011;38819;42.692;23.342;2024-02-26T13:23:38;6.13;;;3.58;;
52956;SDS011;38819;42.692;23.342;2024-02-26T13:26:04;5.38;;;4.47;;
52956;SDS011;38819;42.692;23.342;2024-02-26T13:28:30;9.30;;;4.07;;
52956;SDS011;38819;42.692;23.342;2024-02-26T13:30:56;8.05;;;3.83;;
52956;SDS011;38819;42.692;23.342;2024-02-26T13:33:22;14.93;;;4.22;;
52956;SDS011;38819;42.692;23.342;2024-02-26T13:35:49;5.93;;;4.40;;
52956;SDS011;38819;42.692;23.342;2024-02-26T13:38:15;9.38;;;4.13;;
52956;SDS011;38819;42.692;23.342;2024-02-26T13:40:40;7.93;;;4.03;;
52956;SDS011;38819;42.692;23.342;2024-02-26T13:43:06;10.65;;;4.07;;
52956;SDS011;38819;42.692;23.342;2024-02-26T13:45:34;18.33;;;5.00;;
52956;SDS011;38819;42.692;23.342;2024-02-26T13:48:01;16.58;;;4.30;;
52956;SDS011;38819;42.692;23.342;2024-02-26T13:50:29;8.23;;;4.45;;
52956;SDS011;38819;42.692;23.342;2024-02-26T13:52:55;10.18;;;3.95;;
52956;SDS011;38819;42.692;23.342;2024-02-26T13:55:30;10.07;;;4.65;;
52956;SDS011;38819;42.692;23.342;2024-02-26T13:57:57;11.18;;;4.20;;
52956;SDS011;38819;42.692;23.342;2024-02-26T14:00:24;18.42;;;3.92;;
52956;SDS011;38819;42.692;23.342;2024-02-26T14:02:50;7.28;;;3.65;;
52956;SDS011;38819;42.692;23.342;2024-02-26T14:05:15;7.95;;;3.85;;
52956;SDS011;38819;42.692;23.342;2024-02-26T14:07:41;11.93;;;4.05;;
52956;SDS011;38819;42.692;23.342;2024-02-26T14:10:07;8.93;;;4.13;;
52956;SDS011;38819;42.692;23.342;2024-02-26T14:12:35;12.27;;;3.63;;
52956;SDS011;38819;42.692;23.342;2024-02-26T14:15:00;7.97;;;4.15;;
52956;SDS011;38819;42.692;23.342;2024-02-26T14:17:29;12.30;;;5.75;;
52956;SDS011;38819;42.692;23.342;2024-02-26T14:19:55;7.68;;;3.42;;
52956;SDS011;38819;42.692;23.342;2024-02-26T14:22:20;4.88;;;4.20;;
52956;SDS011;38819;42.692;23.342;2024-02-26T14:24:45;10.75;;;3.88;;
52956;SDS011;38819;42.692;23.342;2024-02-26T14:27:11;5.43;;;3.28;;
52956;SDS011;38819;42.692;23.342;2024-02-26T14:29:40;8.73;;;3.83;;